createdAt,value
2016-11-07T00:00:13.539Z,992.08
2016-11-07T00:01:27.109Z,992.07
2016-11-07T00:02:41.132Z,992.08
2016-11-07T00:03:55.511Z,992.09
2016-11-07T00:05:09.837Z,992.11
2016-11-07T00:06:23.342Z,992.07
2016-11-07T00:07:37.120Z,992.1
2016-11-07T00:08:51.021Z,992.09
2016-11-07T00:10:04.862Z,992.1
2016-11-07T00:11:19.048Z,992.09
2016-11-07T00:12:32.670Z,992.08
2016-11-07T00:13:46.427Z,992.07
2016-11-07T00:15:00.529Z,992.05
2016-11-07T00:16:14.335Z,992.07
2016-11-07T00:17:28.304Z,992.07
2016-11-07T00:18:42.125Z,992.09
2016-11-07T00:19:55.868Z,992.1
2016-11-07T00:21:10.031Z,992.09
2016-11-07T00:22:23.831Z,992.09
2016-11-07T00:23:37.883Z,992.1
2016-11-07T00:24:51.529Z,992.07
2016-11-07T00:26:05.143Z,992.07
2016-11-07T00:27:19.258Z,992.08
2016-11-07T00:28:32.967Z,992.1
2016-11-07T00:29:46.519Z,992.08
2016-11-07T00:31:00.689Z,992.14
2016-11-07T00:32:14.440Z,992.13
2016-11-07T00:33:28.558Z,992.15
2016-11-07T00:34:42.365Z,992.12
2016-11-07T00:35:56.205Z,992.11
2016-11-07T00:43:05.386Z,992.16
2016-11-07T00:44:18.979Z,992.23
2016-11-07T00:46:32.133Z,992.31
2016-11-07T00:48:00.849Z,992.32
2016-11-07T00:53:58.093Z,992.36
2016-11-07T00:55:26.958Z,992.36
2016-11-07T00:57:54.908Z,992.39
2016-11-07T00:59:23.356Z,992.5
2016-11-07T01:04:48.785Z,992.56
2016-11-07T01:06:18.140Z,992.56
2016-11-07T01:11:58.078Z,992.59
2016-11-07T01:13:27.184Z,992.63
2016-11-07T01:17:59.949Z,992.66
2016-11-07T01:20:14.021Z,992.65
2016-11-07T01:21:28.164Z,992.68
2016-11-07T01:22:56.740Z,992.67
2016-11-07T01:24:25.516Z,992.66
2016-11-07T01:27:23.181Z,992.65
2016-11-07T01:31:19.846Z,992.69
2016-11-07T01:34:17.164Z,992.76
2016-11-07T01:37:29.462Z,992.69
2016-11-07T01:38:43.323Z,992.64
2016-11-07T01:40:12.188Z,992.66
2016-11-07T01:42:54.385Z,992.68
2016-11-07T01:44:08.371Z,992.7
2016-11-07T01:45:22.487Z,992.68
2016-11-07T01:50:03.152Z,992.65
2016-11-07T01:51:46.740Z,992.66
2016-11-07T01:53:00.427Z,992.65
2016-11-07T01:54:14.117Z,992.67
2016-11-07T01:55:28.198Z,992.66
2016-11-07T01:56:42.081Z,992.64
2016-11-07T01:57:56.111Z,992.68
2016-11-07T01:59:10.571Z,992.69
2016-11-07T02:00:24.313Z,992.7
2016-11-07T02:01:53.203Z,992.68
2016-11-07T02:03:06.977Z,992.69
2016-11-07T02:04:20.999Z,992.64
2016-11-07T02:05:49.626Z,992.66
2016-11-07T02:07:18.482Z,992.66
2016-11-07T02:08:32.319Z,992.62
2016-11-07T02:11:59.330Z,992.68
2016-11-07T02:13:13.390Z,992.67
2016-11-07T02:14:27.210Z,992.74
2016-11-07T02:15:41.254Z,992.7
2016-11-07T02:20:07.837Z,992.77
2016-11-07T02:21:21.846Z,992.76
2016-11-07T02:24:20.023Z,992.77
2016-11-07T02:28:18.896Z,992.76
2016-11-07T02:29:32.691Z,992.72
2016-11-07T02:35:42.467Z,992.81
2016-11-07T02:36:56.685Z,992.84
2016-11-07T02:38:25.227Z,992.79
2016-11-07T02:40:23.674Z,992.79
2016-11-07T02:42:22.135Z,992.78
2016-11-07T02:45:19.279Z,992.74
2016-11-07T02:46:33.364Z,992.78
2016-11-07T02:48:02.134Z,992.76
2016-11-07T02:49:16.684Z,992.82
2016-11-07T02:50:30.503Z,992.86
2016-11-07T02:53:57.491Z,992.77
2016-11-07T02:55:26.306Z,992.8
2016-11-07T02:56:40.098Z,992.79
2016-11-07T02:57:54.129Z,992.81
2016-11-07T02:59:37.488Z,992.79
2016-11-07T03:02:34.920Z,992.8
2016-11-07T03:03:48.957Z,992.78
2016-11-07T03:05:03.025Z,992.75
2016-11-07T03:06:31.621Z,992.78
2016-11-07T03:08:00.467Z,992.75
2016-11-07T03:11:42.226Z,992.79
2016-11-07T03:12:56.033Z,992.76
2016-11-07T03:14:24.848Z,992.82
2016-11-07T03:15:38.916Z,992.81
2016-11-07T03:16:52.757Z,992.8
2016-11-07T03:18:06.523Z,992.8
2016-11-07T03:20:34.783Z,992.84
2016-11-07T03:21:48.791Z,992.9
2016-11-07T03:23:03.026Z,992.85
2016-11-07T03:24:16.810Z,992.85
2016-11-07T03:25:30.636Z,992.86
2016-11-07T03:26:59.583Z,992.88
2016-11-07T03:28:13.658Z,992.89
2016-11-07T03:30:11.804Z,992.9
2016-11-07T03:33:09.067Z,992.85
2016-11-07T03:34:23.398Z,992.85
2016-11-07T03:36:22.124Z,992.84
2016-11-07T03:42:31.925Z,992.88
2016-11-07T03:43:45.744Z,992.93
2016-11-07T03:48:12.081Z,992.95
2016-11-07T03:49:25.928Z,992.98
2016-11-07T03:54:22.199Z,992.97
2016-11-07T03:57:49.322Z,993
2016-11-07T03:59:17.902Z,993.04
2016-11-07T04:00:32.300Z,993.04
2016-11-07T04:01:46.195Z,993.08
2016-11-07T04:04:01.369Z,993.1
2016-11-07T04:05:15.242Z,993.13
2016-11-07T04:06:59.168Z,993.12
2016-11-07T04:08:27.730Z,993.12
2016-11-07T04:09:41.620Z,993.12
2016-11-07T04:10:55.511Z,993.11
2016-11-07T04:12:09.864Z,993.13
2016-11-07T04:13:23.996Z,993.09
2016-11-07T04:16:50.791Z,993.06
2016-11-07T04:18:05.088Z,993.05
2016-11-07T04:19:18.881Z,993.04
2016-11-07T04:20:32.687Z,993.04
2016-11-07T04:22:01.306Z,993.01
2016-11-07T04:23:15.120Z,993.04
2016-11-07T04:24:29.516Z,993.03
2016-11-07T04:25:43.476Z,993.06
2016-11-07T04:26:57.233Z,993.08
2016-11-07T04:28:11.038Z,993.01
2016-11-07T04:29:25.478Z,993.06
2016-11-07T04:30:39.877Z,993.05
2016-11-07T04:31:53.965Z,993.04
2016-11-07T04:33:07.749Z,993.1
2016-11-07T04:34:21.511Z,993.11
2016-11-07T04:35:35.279Z,993.16
2016-11-07T04:36:50.000Z,993.18
2016-11-07T04:38:04.444Z,993.17
2016-11-07T04:39:18.222Z,993.2
2016-11-07T04:40:32.704Z,993.12
2016-11-07T04:41:46.481Z,993.18
2016-11-07T04:43:00.929Z,993.2
2016-11-07T04:44:14.931Z,993.2
2016-11-07T04:45:28.652Z,993.16
2016-11-07T04:46:42.416Z,993.2
2016-11-07T04:47:56.282Z,993.21
2016-11-07T04:49:10.724Z,993.23
2016-11-07T04:50:24.508Z,993.24
2016-11-07T04:51:38.317Z,993.23
2016-11-07T04:52:52.120Z,993.25
2016-11-07T04:54:05.900Z,993.25
2016-11-07T04:55:20.284Z,993.27
2016-11-07T04:56:34.129Z,993.23
2016-11-07T04:57:47.951Z,993.22
2016-11-07T04:59:02.524Z,993.27
2016-11-07T05:00:16.311Z,993.22
2016-11-07T05:01:30.762Z,993.23
2016-11-07T05:02:44.749Z,993.24
2016-11-07T05:03:58.613Z,993.3
2016-11-07T05:05:12.383Z,993.27
2016-11-07T05:06:26.182Z,993.24
2016-11-07T05:07:40.571Z,993.3
2016-11-07T05:08:54.337Z,993.31
2016-11-07T05:10:08.116Z,993.28
2016-11-07T05:11:22.160Z,993.27
2016-11-07T05:12:35.949Z,993.28
2016-11-07T05:13:50.281Z,993.3
2016-11-07T05:15:04.069Z,993.3
2016-11-07T05:16:17.890Z,993.3
2016-11-07T05:17:31.672Z,993.26
2016-11-07T05:18:45.496Z,993.24
2016-11-07T05:19:59.880Z,993.23
2016-11-07T05:21:13.740Z,993.22
2016-11-07T05:22:29.766Z,993.26
2016-11-07T05:23:43.568Z,993.24
2016-11-07T05:24:57.739Z,993.23
2016-11-07T05:26:12.142Z,993.27
2016-11-07T05:27:26.159Z,993.23
2016-11-07T05:28:40.459Z,993.29
2016-11-07T05:29:54.810Z,993.3
2016-11-07T05:31:23.951Z,993.32
2016-11-07T05:32:38.403Z,993.35
2016-11-07T05:34:07.586Z,993.37
2016-11-07T05:35:23.351Z,993.37
2016-11-07T05:36:37.293Z,993.37
2016-11-07T05:37:51.782Z,993.37
2016-11-07T05:39:05.772Z,993.41
2016-11-07T05:40:19.791Z,993.41
2016-11-07T05:41:48.769Z,993.42
2016-11-07T05:43:03.305Z,993.41
2016-11-07T05:44:17.512Z,993.4
2016-11-07T05:49:13.759Z,993.47
2016-11-07T05:50:57.464Z,993.48
2016-11-07T05:54:39.294Z,993.49
2016-11-07T05:56:07.920Z,993.51
2016-11-07T05:57:36.889Z,993.51
2016-11-07T05:58:50.744Z,993.55
2016-11-07T06:02:03.023Z,993.49
2016-11-07T06:06:29.436Z,993.53
2016-11-07T06:07:43.213Z,993.57
2016-11-07T06:10:40.480Z,993.59
2016-11-07T06:11:54.848Z,993.58
2016-11-07T06:13:08.712Z,993.59
2016-11-07T06:14:22.607Z,993.61
2016-11-07T06:15:36.639Z,993.64
2016-11-07T06:16:50.416Z,993.64
2016-11-07T06:18:04.828Z,993.67
2016-11-07T06:19:48.266Z,993.64
2016-11-07T06:21:02.104Z,993.61
2016-11-07T06:23:59.886Z,993.68
2016-11-07T06:25:13.772Z,993.66
2016-11-07T06:26:27.557Z,993.73
2016-11-07T06:27:41.351Z,993.7
2016-11-07T06:28:55.168Z,993.74
2016-11-07T06:30:24.347Z,993.8
2016-11-07T06:31:38.111Z,993.78
2016-11-07T06:33:21.514Z,993.77
2016-11-07T06:34:50.095Z,993.82
2016-11-07T06:36:19.264Z,993.84
2016-11-07T06:37:33.070Z,993.87
2016-11-07T06:38:46.864Z,993.9
2016-11-07T06:40:00.714Z,993.89
2016-11-07T06:41:29.852Z,993.93
2016-11-07T06:42:43.701Z,993.97
2016-11-07T06:44:56.611Z,993.98
2016-11-07T06:46:10.772Z,994.01
2016-11-07T06:47:25.106Z,994.05
2016-11-07T06:49:23.246Z,993.95
2016-11-07T06:53:52.947Z,994.05
2016-11-07T06:55:06.449Z,994.05
2016-11-07T06:56:19.868Z,994.04
2016-11-07T06:57:33.378Z,994.08
2016-11-07T06:58:47.148Z,994.05
2016-11-07T07:00:01.754Z,994.07
2016-11-07T07:01:15.648Z,994.06
2016-11-07T07:02:29.267Z,994.04
2016-11-07T07:03:43.410Z,994.08
2016-11-07T07:05:12.750Z,994.06
2016-11-07T07:06:27.242Z,994.08
2016-11-07T07:07:41.024Z,994.07
2016-11-07T07:08:54.882Z,994.07
2016-11-07T07:10:09.015Z,994.11
2016-11-07T07:11:22.677Z,994.11
2016-11-07T07:12:37.004Z,994.1
2016-11-07T07:13:50.778Z,994.11
2016-11-07T07:15:04.887Z,994.19
2016-11-07T07:16:19.011Z,994.17
2016-11-07T07:17:33.179Z,994.2
2016-11-07T07:18:47.059Z,994.22
2016-11-07T07:20:01.388Z,994.18
2016-11-07T07:21:15.598Z,994.25
2016-11-07T07:22:29.183Z,994.22
2016-11-07T07:23:42.826Z,994.23
2016-11-07T07:25:11.910Z,994.23
2016-11-07T07:26:25.730Z,994.3
2016-11-07T07:27:39.580Z,994.26
2016-11-07T07:28:53.440Z,994.32
2016-11-07T07:30:07.198Z,994.27
2016-11-07T07:31:21.227Z,994.27
2016-11-07T07:32:37.583Z,994.3
2016-11-07T07:33:51.916Z,994.32
2016-11-07T07:35:05.742Z,994.34
2016-11-07T07:36:19.885Z,994.35
2016-11-07T07:37:34.074Z,994.35
2016-11-07T07:38:47.911Z,994.37
2016-11-07T07:40:01.739Z,994.37
2016-11-07T07:41:15.599Z,994.42
2016-11-07T07:42:29.406Z,994.45
2016-11-07T07:43:43.854Z,994.46
2016-11-07T07:44:57.772Z,994.45
2016-11-07T07:46:11.981Z,994.5
2016-11-07T07:47:26.040Z,994.46
2016-11-07T07:48:39.816Z,994.46
2016-11-07T07:49:53.814Z,994.53
2016-11-07T07:51:07.765Z,994.53
2016-11-07T07:52:21.278Z,994.5
2016-11-07T07:53:35.192Z,994.53
2016-11-07T07:54:49.042Z,994.59
2016-11-07T07:56:02.935Z,994.58
2016-11-07T07:57:17.063Z,994.55
2016-11-07T07:58:30.894Z,994.66
2016-11-07T07:59:45.794Z,994.6
2016-11-07T08:01:01.052Z,994.69
2016-11-07T08:02:15.133Z,994.64
2016-11-07T08:03:28.892Z,994.69
2016-11-07T08:04:43.029Z,994.69
2016-11-07T08:05:57.009Z,994.7
2016-11-07T08:07:10.796Z,994.7
2016-11-07T08:08:27.127Z,994.76
2016-11-07T08:09:41.417Z,994.76
2016-11-07T08:10:55.290Z,994.77
2016-11-07T08:12:09.628Z,994.74
2016-11-07T08:13:23.441Z,994.79
2016-11-07T08:14:37.493Z,994.8
2016-11-07T08:15:51.295Z,994.87
2016-11-07T08:17:05.410Z,994.89
2016-11-07T08:18:20.005Z,994.88
2016-11-07T08:19:33.849Z,994.89
2016-11-07T08:20:48.177Z,994.85
2016-11-07T08:22:01.861Z,994.88
2016-11-07T08:23:15.440Z,994.88
2016-11-07T08:24:29.471Z,994.94
2016-11-07T08:25:43.226Z,994.99
2016-11-07T08:26:57.818Z,994.99
2016-11-07T08:28:11.676Z,995.03
2016-11-07T08:29:25.664Z,995.01
2016-11-07T08:30:39.537Z,995.03
2016-11-07T08:31:53.617Z,994.98
2016-11-07T08:33:08.036Z,994.97
2016-11-07T08:34:21.711Z,994.96
2016-11-07T08:35:35.607Z,994.97
2016-11-07T08:36:49.411Z,994.97
2016-11-07T08:38:03.372Z,994.99
2016-11-07T08:39:17.677Z,995.01
2016-11-07T08:40:31.474Z,995.03
2016-11-07T08:41:45.248Z,994.97
2016-11-07T08:42:58.927Z,994.96
2016-11-07T08:44:12.766Z,994.99
2016-11-07T08:45:26.986Z,994.98
2016-11-07T08:46:41.393Z,995.01
2016-11-07T08:47:55.220Z,995.02
2016-11-07T08:49:08.963Z,995
2016-11-07T08:50:22.617Z,995
2016-11-07T08:51:36.776Z,994.98
2016-11-07T08:52:50.730Z,995.02
2016-11-07T08:54:04.708Z,995.02
2016-11-07T08:55:18.486Z,995.04
2016-11-07T08:56:32.081Z,995.06
2016-11-07T08:57:46.245Z,995.07
2016-11-07T08:59:00.362Z,995.02
2016-11-07T09:00:14.185Z,995.09
2016-11-07T09:01:28.142Z,995.12
2016-11-07T09:02:41.969Z,995.1
2016-11-07T09:03:55.751Z,995.14
2016-11-07T09:05:09.552Z,995.1
2016-11-07T09:06:23.249Z,995.14
2016-11-07T09:07:37.461Z,995.13
2016-11-07T09:08:51.177Z,995.13
2016-11-07T09:10:05.212Z,995.09
2016-11-07T09:11:18.875Z,995.11
2016-11-07T09:12:33.823Z,995.07
2016-11-07T09:13:47.317Z,995.14
2016-11-07T09:15:01.370Z,995.13
2016-11-07T09:16:15.394Z,995.18
2016-11-07T09:17:29.038Z,995.14
2016-11-07T09:18:42.595Z,995.16
2016-11-07T09:19:56.490Z,995.18
2016-11-07T09:21:10.055Z,995.15
2016-11-07T09:22:24.249Z,995.18
2016-11-07T09:23:38.014Z,995.25
2016-11-07T09:24:54.400Z,995.29
2016-11-07T09:26:08.140Z,995.29
2016-11-07T09:27:21.837Z,995.25
2016-11-07T09:28:36.471Z,995.31
2016-11-07T09:29:50.573Z,995.3
2016-11-07T09:31:19.324Z,995.35
2016-11-07T09:32:32.885Z,995.39
2016-11-07T09:33:47.176Z,995.42
2016-11-07T09:35:01.892Z,995.41
2016-11-07T09:36:15.725Z,995.43
2016-11-07T09:37:29.740Z,995.48
2016-11-07T09:38:43.601Z,995.48
2016-11-07T09:39:57.939Z,995.45
2016-11-07T09:41:12.264Z,995.41
2016-11-07T09:42:26.036Z,995.43
2016-11-07T09:43:39.863Z,995.54
2016-11-07T09:44:54.189Z,995.55
2016-11-07T09:46:08.150Z,995.51
2016-11-07T09:47:21.990Z,995.52
2016-11-07T09:48:35.763Z,995.55
2016-11-07T09:49:49.561Z,995.6
2016-11-07T09:51:03.425Z,995.57
2016-11-07T09:52:32.598Z,995.61
2016-11-07T09:53:46.436Z,995.56
2016-11-07T09:55:01.062Z,995.56
2016-11-07T09:56:14.885Z,995.55
2016-11-07T09:57:29.791Z,995.58
2016-11-07T09:58:44.107Z,995.58
2016-11-07T09:59:57.724Z,995.58
2016-11-07T10:01:11.347Z,995.57
2016-11-07T10:02:25.162Z,995.54
2016-11-07T10:03:38.918Z,995.56
2016-11-07T10:04:53.458Z,995.6
2016-11-07T10:06:07.495Z,995.55
2016-11-07T10:07:21.565Z,995.64
2016-11-07T10:08:35.398Z,995.58
2016-11-07T10:09:49.230Z,995.6
2016-11-07T10:11:03.234Z,995.58
2016-11-07T10:12:17.318Z,995.57
2016-11-07T10:13:31.214Z,995.6
2016-11-07T10:16:28.599Z,995.59
2016-11-07T10:21:09.260Z,995.61
2016-11-07T10:23:37.236Z,995.64
2016-11-07T10:25:06.076Z,995.69
2016-11-07T10:28:18.124Z,995.67
2016-11-07T10:29:32.707Z,995.67
2016-11-07T10:31:00.969Z,995.62
2016-11-07T10:44:47.519Z,995.62
2016-11-07T10:46:31.180Z,995.63
2016-11-07T10:49:13.778Z,995.61
2016-11-07T10:50:56.957Z,995.59
2016-11-07T10:54:26.601Z,995.63
2016-11-07T10:57:08.910Z,995.66
2016-11-07T11:01:35.181Z,995.71
2016-11-07T11:03:18.517Z,995.72
2016-11-07T11:04:32.855Z,995.7
2016-11-07T11:07:44.961Z,995.72
2016-11-07T11:09:28.272Z,995.64
2016-11-07T11:18:08.214Z,995.63
2016-11-07T11:24:08.247Z,995.67
2016-11-07T11:25:37.346Z,995.67
2016-11-07T11:31:17.201Z,995.69
2016-11-07T11:32:31.361Z,995.68
2016-11-07T11:35:28.532Z,995.76
2016-11-07T11:36:42.395Z,995.74
2016-11-07T11:38:25.909Z,995.76
2016-11-07T11:39:54.321Z,995.77
2016-11-07T11:41:22.772Z,995.79
2016-11-07T11:42:36.946Z,995.82
2016-11-07T11:43:50.958Z,995.8
2016-11-07T11:45:04.999Z,995.77
2016-11-07T11:46:18.893Z,995.8
2016-11-07T11:47:32.604Z,995.83
2016-11-07T11:48:47.017Z,995.82
2016-11-07T11:51:14.746Z,995.73
2016-11-07T11:52:29.087Z,995.81
2016-11-07T11:53:42.679Z,995.81
2016-11-07T11:54:56.512Z,995.75
2016-11-07T11:56:25.094Z,995.79
2016-11-07T11:59:07.742Z,995.79
2016-11-07T12:00:51.569Z,995.77
2016-11-07T12:02:49.709Z,995.78
2016-11-07T12:04:48.059Z,995.78
2016-11-07T12:06:16.960Z,995.78
2016-11-07T12:08:00.322Z,995.82
2016-11-07T12:09:29.229Z,995.76
2016-11-07T12:13:11.206Z,995.74
2016-11-07T12:14:25.373Z,995.73
2016-11-07T12:15:53.906Z,995.77
2016-11-07T12:17:37.274Z,995.73
2016-11-07T12:20:49.296Z,995.74
2016-11-07T12:22:18.185Z,995.73
2016-11-07T12:23:31.688Z,995.73
2016-11-07T12:25:15.311Z,995.69
2016-11-07T12:27:13.396Z,995.71
2016-11-07T12:31:10.361Z,995.71
2016-11-07T12:32:53.682Z,995.74
2016-11-07T12:34:07.803Z,995.74
2016-11-07T12:35:24.013Z,995.65
2016-11-07T12:36:37.901Z,995.78
2016-11-07T12:37:52.199Z,995.77
2016-11-07T12:39:06.124Z,995.74
2016-11-07T12:43:17.628Z,995.76
2016-11-07T12:44:31.647Z,995.77
2016-11-07T12:45:45.427Z,995.72
2016-11-07T12:50:26.665Z,995.73
2016-11-07T13:07:12.742Z,995.73
2016-11-07T13:08:41.374Z,995.76
2016-11-07T13:10:10.017Z,995.7
2016-11-07T13:12:23.506Z,995.73
2016-11-07T13:13:52.168Z,995.7
2016-11-07T13:16:34.846Z,995.72
2016-11-07T13:17:48.342Z,995.7
2016-11-07T13:21:30.782Z,995.71
2016-11-07T13:22:44.584Z,995.74
2016-11-07T13:23:58.375Z,995.74
2016-11-07T13:31:37.661Z,995.77
2016-11-07T13:40:59.377Z,995.75
2016-11-07T13:43:27.077Z,995.76
2016-11-07T13:44:55.750Z,995.78
2016-11-07T13:46:39.347Z,995.8
2016-11-07T13:50:06.407Z,995.8
2016-11-07T13:51:20.466Z,995.82
2016-11-07T13:52:34.420Z,995.87
2016-11-07T13:53:48.435Z,995.86
2016-11-07T13:55:02.247Z,995.86
2016-11-07T13:56:15.797Z,995.85
2016-11-07T13:57:29.610Z,995.82
2016-11-07T13:58:43.357Z,995.91
2016-11-07T13:59:57.050Z,995.9
2016-11-07T14:01:10.522Z,995.87
2016-11-07T14:02:23.997Z,995.92
2016-11-07T14:03:38.191Z,995.89
2016-11-07T14:04:52.091Z,995.9
2016-11-07T14:10:32.075Z,995.9
2016-11-07T14:11:46.620Z,995.92
2016-11-07T14:13:15.023Z,995.98
2016-11-07T14:14:43.625Z,995.95
2016-11-07T14:16:41.976Z,995.94
2016-11-07T14:17:56.049Z,995.97
2016-11-07T14:19:27.066Z,995.99
2016-11-07T14:20:40.887Z,995.99
2016-11-07T14:22:00.613Z,995.97
2016-11-07T14:23:29.655Z,995.96
2016-11-07T14:24:58.145Z,996
2016-11-07T14:26:12.061Z,995.97
2016-11-07T14:27:26.034Z,995.95
2016-11-07T14:28:39.821Z,995.97
2016-11-07T14:29:53.957Z,995.95
2016-11-07T14:31:07.643Z,995.96
2016-11-07T14:32:21.305Z,995.95
2016-11-07T14:37:02.149Z,996
2016-11-07T14:38:16.169Z,996.03
2016-11-07T14:41:43.652Z,996
2016-11-07T14:43:41.705Z,996.03
2016-11-07T14:45:10.029Z,996.06
2016-11-07T14:47:08.365Z,996.04
2016-11-07T14:52:33.591Z,996.06
2016-11-07T14:55:46.160Z,996.08
2016-11-07T14:57:29.352Z,996.09
2016-11-07T14:59:13.707Z,996.12
2016-11-07T15:02:11.558Z,996.08
2016-11-07T15:03:55.030Z,996.04
2016-11-07T15:06:08.548Z,996.07
2016-11-07T15:07:23.324Z,996.08
2016-11-07T15:08:39.709Z,996.08
2016-11-07T15:09:54.484Z,996.14
2016-11-07T15:11:08.180Z,996.12
2016-11-07T15:12:22.545Z,996.12
2016-11-07T15:13:36.642Z,996.2
2016-11-07T15:14:50.702Z,996.17
2016-11-07T15:16:04.775Z,996.22
2016-11-07T15:22:29.786Z,996.2
2016-11-07T15:23:58.351Z,996.18
2016-11-07T15:25:56.497Z,996.16
2016-11-07T15:27:10.370Z,996.14
2016-11-07T15:28:23.996Z,996.16
2016-11-07T15:29:38.196Z,996.18
2016-11-07T15:31:21.652Z,996.19
2016-11-07T15:34:04.696Z,996.13
2016-11-07T15:37:01.940Z,996.19
2016-11-07T15:38:30.677Z,996.22
2016-11-07T15:39:44.875Z,996.22
2016-11-07T15:40:58.831Z,996.23
2016-11-07T15:42:42.459Z,996.26
2016-11-07T15:45:54.565Z,996.26
2016-11-07T15:47:23.892Z,996.27
2016-11-07T15:49:07.176Z,996.25
2016-11-07T15:51:34.879Z,996.29
2016-11-07T15:53:04.032Z,996.29
2016-11-07T15:54:20.141Z,996.29
2016-11-07T16:26:14.813Z,996.53
2016-11-07T16:27:43.718Z,996.6
2016-11-07T16:31:54.939Z,996.58
2016-11-07T16:33:09.936Z,996.57
2016-11-07T16:36:21.715Z,996.65
2016-11-07T16:38:49.716Z,996.67
2016-11-07T16:40:03.863Z,996.68
2016-11-07T16:42:17.476Z,996.75
2016-11-07T16:49:28.058Z,996.8
2016-11-07T16:51:11.252Z,996.78
2016-11-07T16:52:39.644Z,996.82
2016-11-07T16:57:06.135Z,996.86
2016-11-07T17:03:10.866Z,996.92
2016-11-07T17:05:42.949Z,996.91
2016-11-07T17:07:34.737Z,996.95
2016-11-07T17:08:48.697Z,996.94
2016-11-07T17:13:29.156Z,996.97
2016-11-07T17:14:58.532Z,996.92
2016-11-07T17:16:12.274Z,996.95
2016-11-07T17:17:26.073Z,996.95
2016-11-07T17:19:24.151Z,996.92
2016-11-07T17:20:38.449Z,996.93
2016-11-07T17:22:54.097Z,996.97
2016-11-07T17:27:32.337Z,997
2016-11-07T17:28:48.548Z,997.02
2016-11-07T17:41:29.455Z,997
2016-11-07T17:43:13.139Z,997.06
2016-11-07T17:46:10.085Z,997
2016-11-07T17:51:43.306Z,997.01
2016-11-07T17:53:26.455Z,997.03
2016-11-07T17:54:54.695Z,996.98
2016-11-07T17:56:08.009Z,997.01
2016-11-07T17:57:36.547Z,997.03
2016-11-07T18:01:18.154Z,997.04
2016-11-07T18:02:46.304Z,997.05
2016-11-07T18:10:45.805Z,997.08
2016-11-07T19:39:40.917Z,997.43
2016-11-07T19:40:54.364Z,997.44
2016-11-07T19:42:08.116Z,997.41
2016-11-07T19:43:21.476Z,997.46
2016-11-07T19:44:35.235Z,997.48
2016-11-07T19:45:48.575Z,997.49
2016-11-07T19:47:02.088Z,997.46
2016-11-07T19:48:31.170Z,997.49
2016-11-07T19:49:44.604Z,997.49
2016-11-07T19:50:58.554Z,997.46
2016-11-07T19:52:12.708Z,997.5
2016-11-07T19:55:45.617Z,997.56
2016-11-07T19:59:43.554Z,997.46
2016-11-07T20:03:16.168Z,997.54
2016-11-07T20:04:29.493Z,997.51
2016-11-07T20:05:57.806Z,997.5
2016-11-07T20:08:25.425Z,997.47
2016-11-07T20:09:54.300Z,997.47
2016-11-07T20:11:22.513Z,997.49
2016-11-07T20:12:36.536Z,997.54
2016-11-07T20:17:02.393Z,997.45
2016-11-07T20:18:16.091Z,997.44
2016-11-07T20:19:59.271Z,997.46
2016-11-07T20:21:44.594Z,997.48
2016-11-07T20:23:43.155Z,997.42
2016-11-07T20:26:39.654Z,997.39
2016-11-07T20:27:52.999Z,997.41
2016-11-07T20:32:48.928Z,997.38
2016-11-07T20:34:17.444Z,997.39
2016-11-07T20:35:45.972Z,997.41
2016-11-07T20:37:29.040Z,997.35
2016-11-07T20:38:42.784Z,997.36
2016-11-07T20:40:26.330Z,997.35
2016-11-07T20:42:54.265Z,997.36
2016-11-07T20:44:22.670Z,997.35
2016-11-07T20:45:36.609Z,997.41
2016-11-07T20:47:20.300Z,997.41
2016-11-07T20:48:34.200Z,997.43
2016-11-07T22:07:48.944Z,997.1
2016-11-07T22:29:11.459Z,996.96
2016-11-07T22:30:25.394Z,996.99
2016-11-07T22:31:39.200Z,996.94
2016-11-07T22:32:53.058Z,996.95
2016-11-07T22:34:36.663Z,996.95
2016-11-07T22:44:13.897Z,997
2016-11-07T22:45:57.952Z,997.01
2016-11-07T22:49:13.446Z,996.98
2016-11-07T22:50:56.962Z,996.98
2016-11-07T22:53:24.977Z,996.94
2016-11-07T22:54:39.086Z,996.96
2016-11-07T22:58:35.905Z,996.98
2016-11-07T23:28:12.299Z,997.02
2016-11-07T23:43:07.940Z,996.97
2016-11-07T23:44:21.770Z,996.95
